createdAt,value
2023-02-15T00:01:49.648Z,60.01
2023-02-15T00:04:19.009Z,59.61
2023-02-15T00:06:45.804Z,58.39
2023-02-15T00:09:12.913Z,58.34
2023-02-15T00:11:52.426Z,57.53
2023-02-15T00:14:21.495Z,57.88
2023-02-15T00:16:49.350Z,57.87
2023-02-15T00:19:20.528Z,58.23
2023-02-15T00:21:48.515Z,59.35
2023-02-15T00:24:18.118Z,58.24
2023-02-15T00:26:45.080Z,57.53
2023-02-15T00:29:13.033Z,56.97
2023-02-15T00:31:39.875Z,58.11
2023-02-15T00:34:14.909Z,57.61
2023-02-15T00:36:42.119Z,58.08
2023-02-15T00:39:09.260Z,57.67
2023-02-15T00:41:35.937Z,57.71
2023-02-15T00:44:02.635Z,57.81
2023-02-15T00:46:30.156Z,58.11
2023-02-15T00:48:56.779Z,58.22
2023-02-15T00:51:23.508Z,58.40
2023-02-15T00:53:50.257Z,58.43
2023-02-15T00:56:16.868Z,58.89
2023-02-15T00:58:43.609Z,58.71
2023-02-15T01:01:13.642Z,59.08
2023-02-15T01:03:42.571Z,58.28
2023-02-15T01:06:13.561Z,58.00
2023-02-15T01:08:40.197Z,58.06
2023-02-15T01:11:12.098Z,58.29
2023-02-15T01:13:38.878Z,57.77
2023-02-15T01:16:06.169Z,57.42
2023-02-15T01:18:33.928Z,57.88
2023-02-15T01:21:00.501Z,58.23
2023-02-15T01:23:27.270Z,58.62
2023-02-15T01:25:53.831Z,58.92
2023-02-15T01:28:20.383Z,58.20
2023-02-15T01:30:47.085Z,58.30
2023-02-15T01:33:18.835Z,58.33
2023-02-15T01:35:47.122Z,58.91
2023-02-15T01:38:16.265Z,59.05
2023-02-15T01:40:43.203Z,59.25
2023-02-15T01:43:13.543Z,59.85
2023-02-15T01:45:40.509Z,59.90
2023-02-15T01:48:26.244Z,59.63
2023-02-15T01:50:57.460Z,59.21
2023-02-15T01:53:35.591Z,59.44
2023-02-15T01:56:07.392Z,59.65
2023-02-15T01:58:35.079Z,59.22
2023-02-15T02:01:04.820Z,59.00
2023-02-15T02:03:47.460Z,59.56
2023-02-15T02:06:14.265Z,59.44
2023-02-15T02:08:41.248Z,59.44
2023-02-15T02:11:13.852Z,59.04
2023-02-15T02:13:45.384Z,58.97
2023-02-15T02:16:17.349Z,58.33
2023-02-15T02:19:12.169Z,58.38
2023-02-15T02:22:05.411Z,59.14
2023-02-15T02:24:56.320Z,59.16
2023-02-15T02:27:35.160Z,58.56
2023-02-15T02:30:13.775Z,58.46
2023-02-15T02:33:22.114Z,58.93
2023-02-15T02:35:53.568Z,59.13
2023-02-15T02:38:33.653Z,58.74
2023-02-15T02:41:16.881Z,58.95
2023-02-15T02:44:04.009Z,59.60
2023-02-15T02:46:53.668Z,59.17
2023-02-15T02:49:39.195Z,57.94
2023-02-15T02:52:26.774Z,58.45
2023-02-15T02:54:54.798Z,58.38
2023-02-15T02:57:24.556Z,57.90
2023-02-15T02:59:52.975Z,57.92
2023-02-15T03:02:29.330Z,57.68
2023-02-15T03:05:04.503Z,57.72
2023-02-15T03:07:32.457Z,57.89
2023-02-15T03:10:02.837Z,58.00
2023-02-15T03:12:33.123Z,57.68
2023-02-15T03:15:06.683Z,57.58
2023-02-15T03:17:36.799Z,56.92
2023-02-15T03:20:15.715Z,57.62
2023-02-15T03:23:04.264Z,57.89
2023-02-15T03:25:39.664Z,57.23
2023-02-15T03:28:10.686Z,57.69
2023-02-15T03:30:39.180Z,57.77
2023-02-15T03:33:07.464Z,57.85
2023-02-15T03:35:54.071Z,57.54
2023-02-15T03:38:32.065Z,57.25
2023-02-15T03:41:12.613Z,57.42
2023-02-15T03:43:53.022Z,57.73
2023-02-15T03:46:33.136Z,57.08
2023-02-15T03:49:05.322Z,57.65
2023-02-15T03:51:36.260Z,57.55
2023-02-15T03:54:13.545Z,57.01
2023-02-15T03:57:03.259Z,57.02
2023-02-15T03:59:48.419Z,57.75
2023-02-15T04:02:26.273Z,58.05
2023-02-15T04:04:52.870Z,58.33
2023-02-15T04:07:19.656Z,57.64
2023-02-15T04:10:04.577Z,57.59
2023-02-15T04:12:32.009Z,57.27
2023-02-15T04:15:17.259Z,55.95
2023-02-15T04:17:44.026Z,57.68
2023-02-15T04:20:29.349Z,57.03
2023-02-15T04:23:14.214Z,57.33
2023-02-15T04:25:40.793Z,56.58
2023-02-15T04:28:08.646Z,57.10
2023-02-15T04:30:35.316Z,56.69
2023-02-15T04:33:01.850Z,58.37
2023-02-15T04:35:28.391Z,57.12
2023-02-15T04:37:54.987Z,56.79
2023-02-15T04:40:21.936Z,56.46
2023-02-15T04:42:50.056Z,56.66
2023-02-15T04:45:17.005Z,57.86
2023-02-15T04:47:44.230Z,57.38
2023-02-15T04:50:11.139Z,57.28
2023-02-15T04:52:37.756Z,57.41
2023-02-15T04:55:04.547Z,57.05
2023-02-15T04:57:31.087Z,57.16
2023-02-15T04:59:59.326Z,57.87
2023-02-15T05:02:25.949Z,58.51
2023-02-15T05:04:52.499Z,58.22
2023-02-15T05:07:21.160Z,58.25
2023-02-15T05:09:47.757Z,57.96
2023-02-15T05:12:14.331Z,59.56
2023-02-15T05:14:40.893Z,59.32
2023-02-15T05:17:07.452Z,58.20
2023-02-15T05:19:34.100Z,57.41
2023-02-15T05:22:00.654Z,59.62
2023-02-15T05:24:59.552Z,57.72
2023-02-15T05:27:44.408Z,56.92
2023-02-15T05:30:12.527Z,57.46
2023-02-15T05:32:40.093Z,57.84
2023-02-15T05:35:08.561Z,57.18
2023-02-15T05:37:35.128Z,57.09
2023-02-15T05:40:01.749Z,57.32
2023-02-15T05:42:28.344Z,57.52
2023-02-15T05:44:54.868Z,57.94
2023-02-15T05:47:21.538Z,57.85
2023-02-15T05:49:48.161Z,58.15
2023-02-15T05:52:14.727Z,58.28
2023-02-15T05:54:41.269Z,58.02
2023-02-15T05:57:08.070Z,58.10
2023-02-15T05:59:34.846Z,58.09
2023-02-15T06:02:01.607Z,57.95
2023-02-15T06:04:28.281Z,58.32
2023-02-15T06:06:54.835Z,58.95
2023-02-15T06:09:21.433Z,58.22
2023-02-15T06:11:48.051Z,59.51
2023-02-15T06:14:14.724Z,58.48
2023-02-15T06:16:41.407Z,59.11
2023-02-15T06:19:08.062Z,59.33
2023-02-15T06:21:34.595Z,58.93
2023-02-15T06:24:01.220Z,58.54
2023-02-15T06:26:27.777Z,58.11
2023-02-15T06:28:54.515Z,58.63
2023-02-15T06:31:21.195Z,57.67
2023-02-15T06:33:47.873Z,57.32
2023-02-15T06:36:14.480Z,56.75
2023-02-15T06:38:41.103Z,57.37
2023-02-15T06:41:07.712Z,57.06
2023-02-15T06:43:35.105Z,57.62
2023-02-15T06:46:02.098Z,57.34
2023-02-15T06:48:29.013Z,57.06
2023-02-15T06:50:55.559Z,58.38
2023-02-15T06:53:22.100Z,61.08
2023-02-15T06:55:48.650Z,59.02
2023-02-15T06:58:15.240Z,59.11
2023-02-15T07:00:41.895Z,59.57
2023-02-15T07:03:08.978Z,59.65
2023-02-15T07:05:35.791Z,59.90
2023-02-15T07:08:02.451Z,61.17
2023-02-15T07:10:29.325Z,60.82
2023-02-15T07:12:56.680Z,60.55
2023-02-15T07:15:23.472Z,60.17
2023-02-15T07:17:50.435Z,59.99
2023-02-15T07:20:22.466Z,60.18
2023-02-15T07:22:49.907Z,59.60
2023-02-15T07:25:17.030Z,59.94
2023-02-15T07:27:45.071Z,59.37
2023-02-15T07:30:14.445Z,59.56
2023-02-15T07:33:02.858Z,59.86
2023-02-15T07:35:31.270Z,59.48
2023-02-15T07:37:57.903Z,58.79
2023-02-15T07:40:24.547Z,57.83
2023-02-15T07:42:54.194Z,57.74
2023-02-15T07:45:22.036Z,59.50
2023-02-15T07:47:48.658Z,59.23
2023-02-15T07:50:15.325Z,59.72
2023-02-15T07:52:42.011Z,59.11
2023-02-15T07:55:09.771Z,58.69
2023-02-15T07:57:36.511Z,58.40
2023-02-15T08:00:04.341Z,58.97
2023-02-15T08:02:39.378Z,59.46
2023-02-15T08:05:07.089Z,59.15
2023-02-15T08:07:33.715Z,59.47
2023-02-15T08:10:00.440Z,59.05
2023-02-15T08:12:27.717Z,59.17
2023-02-15T08:14:54.257Z,58.48
2023-02-15T08:17:20.817Z,57.72
2023-02-15T08:19:47.756Z,57.75
2023-02-15T08:22:15.246Z,57.48
2023-02-15T08:24:42.474Z,57.86
2023-02-15T08:27:11.955Z,57.61
2023-02-15T08:29:39.283Z,57.40
2023-02-15T08:32:11.297Z,56.77
2023-02-15T08:34:40.341Z,57.14
2023-02-15T08:37:07.413Z,57.98
2023-02-15T08:39:34.546Z,56.99
2023-02-15T08:42:01.443Z,56.92
2023-02-15T08:44:28.122Z,56.52
2023-02-15T08:46:55.652Z,57.07
2023-02-15T08:49:22.954Z,56.25
2023-02-15T08:51:50.195Z,57.22
2023-02-15T08:54:19.698Z,56.82
2023-02-15T08:56:46.699Z,56.62
2023-02-15T08:59:16.374Z,56.30
2023-02-15T09:01:43.549Z,56.25
2023-02-15T09:04:10.756Z,55.96
2023-02-15T09:06:39.264Z,56.27
2023-02-15T09:09:06.608Z,55.67
2023-02-15T09:11:41.933Z,56.47
2023-02-15T09:14:14.451Z,55.62
2023-02-15T09:16:42.548Z,55.18
2023-02-15T09:19:09.530Z,54.50
2023-02-15T09:21:37.798Z,55.24
2023-02-15T09:24:13.069Z,53.99
2023-02-15T09:26:42.932Z,53.70
2023-02-15T09:29:11.706Z,53.50
2023-02-15T09:31:42.287Z,53.24
2023-02-15T09:34:09.187Z,53.08
2023-02-15T09:36:37.406Z,52.92
2023-02-15T09:39:13.074Z,52.78
2023-02-15T09:42:19.146Z,52.46
2023-02-15T09:45:07.898Z,52.34
2023-02-15T09:48:10.626Z,52.06
2023-02-15T09:50:55.405Z,51.83
2023-02-15T09:53:46.418Z,51.49
2023-02-15T09:56:31.109Z,50.11
2023-02-15T09:59:12.663Z,49.70
2023-02-15T10:02:00.044Z,49.12
2023-02-15T10:05:06.709Z,49.90
2023-02-15T10:07:45.116Z,50.19
2023-02-15T10:10:26.396Z,49.41
2023-02-15T10:13:07.212Z,49.00
2023-02-15T10:15:59.017Z,49.11
2023-02-15T10:18:53.984Z,50.78
2023-02-15T10:21:47.412Z,49.25
2023-02-15T10:24:25.895Z,50.60
2023-02-15T10:26:59.557Z,48.98
2023-02-15T10:29:34.025Z,48.36
2023-02-15T10:32:17.297Z,47.19
2023-02-15T10:35:09.047Z,48.36
2023-02-15T10:38:00.394Z,46.26
2023-02-15T10:40:32.828Z,45.59
2023-02-15T10:43:35.594Z,48.18
2023-02-15T10:46:20.434Z,45.54
2023-02-15T10:49:01.771Z,45.62
2023-02-15T10:51:48.068Z,45.38
2023-02-15T10:54:27.334Z,45.42
2023-02-15T10:57:01.589Z,44.62
2023-02-15T11:00:06.071Z,44.62
2023-02-15T11:03:13.028Z,44.89
2023-02-15T11:05:46.399Z,44.45
2023-02-15T11:08:13.168Z,44.68
2023-02-15T11:10:47.310Z,42.94
2023-02-15T11:13:19.635Z,42.95
2023-02-15T11:15:58.539Z,42.44
2023-02-15T11:18:35.333Z,45.07
2023-02-15T11:21:14.693Z,43.17
2023-02-15T11:23:45.666Z,44.40
2023-02-15T11:26:38.524Z,43.54
2023-02-15T11:29:21.862Z,42.37
2023-02-15T11:31:57.730Z,43.26
2023-02-15T11:34:38.941Z,42.65
2023-02-15T11:37:11.271Z,42.83
2023-02-15T11:39:38.418Z,41.70
2023-02-15T11:42:15.089Z,41.80
2023-02-15T11:45:00.237Z,41.43
2023-02-15T11:47:26.917Z,41.28
2023-02-15T11:49:53.459Z,40.82
2023-02-15T11:52:20.141Z,39.72
2023-02-15T11:54:51.348Z,40.63
2023-02-15T11:57:24.205Z,40.14
2023-02-15T12:00:08.544Z,40.58
2023-02-15T12:02:38.421Z,39.15
2023-02-15T12:05:11.817Z,36.35
2023-02-15T12:08:01.719Z,36.07
2023-02-15T12:10:38.880Z,36.49
2023-02-15T12:13:19.113Z,36.91
2023-02-15T12:15:55.099Z,37.00
2023-02-15T12:18:45.297Z,35.73
2023-02-15T12:21:15.449Z,36.77
2023-02-15T12:23:51.326Z,35.91
2023-02-15T12:26:33.517Z,35.76
2023-02-15T12:29:03.194Z,35.80
2023-02-15T12:31:35.437Z,35.58
2023-02-15T12:34:10.492Z,36.17
2023-02-15T12:36:45.474Z,35.50
2023-02-15T12:39:14.941Z,34.98
2023-02-15T12:42:00.140Z,34.91
2023-02-15T12:44:30.082Z,34.67
2023-02-15T12:46:56.969Z,35.33
2023-02-15T12:49:23.524Z,34.46
2023-02-15T12:51:59.537Z,34.04
2023-02-15T12:54:31.027Z,33.30
2023-02-15T12:57:00.786Z,32.96
2023-02-15T12:59:27.627Z,34.99
2023-02-15T13:01:54.900Z,37.53
2023-02-15T13:04:29.454Z,36.36
2023-02-15T13:07:03.740Z,36.88
2023-02-15T13:09:33.299Z,37.57
2023-02-15T13:12:22.861Z,37.17
2023-02-15T13:14:52.674Z,36.47
2023-02-15T13:17:25.782Z,37.15
2023-02-15T13:19:55.364Z,36.84
2023-02-15T13:22:34.016Z,36.32
2023-02-15T13:25:10.985Z,36.66
2023-02-15T13:27:42.428Z,35.99
2023-02-15T13:30:23.043Z,35.98
2023-02-15T13:32:52.349Z,35.37
2023-02-15T13:35:19.890Z,35.83
2023-02-15T13:38:07.505Z,36.63
2023-02-15T13:40:40.047Z,36.42
2023-02-15T13:43:21.896Z,36.96
2023-02-15T13:45:58.319Z,37.44
2023-02-15T13:48:50.768Z,37.46
2023-02-15T13:51:42.823Z,36.97
2023-02-15T13:54:21.302Z,37.40
2023-02-15T13:57:05.066Z,36.63
2023-02-15T13:59:57.094Z,36.75
2023-02-15T14:02:26.950Z,35.67
2023-02-15T14:04:53.420Z,35.51
2023-02-15T14:07:40.839Z,35.42
2023-02-15T14:10:10.254Z,35.77
2023-02-15T14:13:15.627Z,33.73
2023-02-15T14:15:48.081Z,34.49
2023-02-15T14:18:39.710Z,35.90
2023-02-15T14:21:32.750Z,35.39
2023-02-15T14:24:23.993Z,34.59
2023-02-15T14:27:08.856Z,34.54
2023-02-15T14:29:50.415Z,34.86
2023-02-15T14:32:36.598Z,33.89
2023-02-15T14:35:18.293Z,33.25
2023-02-15T14:38:00.018Z,32.95
2023-02-15T14:41:04.915Z,32.92
2023-02-15T14:43:50.545Z,33.34
2023-02-15T14:46:24.683Z,32.11
2023-02-15T14:49:11.295Z,32.05
2023-02-15T14:51:44.049Z,31.58
2023-02-15T14:54:33.645Z,32.09
2023-02-15T14:57:02.944Z,32.21
2023-02-15T14:59:51.216Z,31.14
2023-02-15T15:02:48.374Z,31.52
2023-02-15T15:05:20.950Z,31.74
2023-02-15T15:07:50.253Z,32.81
2023-02-15T15:10:17.010Z,33.83
2023-02-15T15:12:54.668Z,32.67
2023-02-15T15:15:33.244Z,32.71
2023-02-15T15:18:06.713Z,32.44
2023-02-15T15:20:57.036Z,33.91
2023-02-15T15:23:23.549Z,33.92
2023-02-15T15:25:50.117Z,33.48
2023-02-15T15:28:39.572Z,33.80
2023-02-15T15:31:21.269Z,33.30
2023-02-15T15:34:15.302Z,33.65
2023-02-15T15:37:00.716Z,33.78
2023-02-15T15:39:50.636Z,34.39
2023-02-15T15:42:45.959Z,34.34
2023-02-15T15:45:15.132Z,34.82
2023-02-15T15:48:19.246Z,34.28
2023-02-15T15:50:47.363Z,34.94
2023-02-15T15:53:22.547Z,35.08
2023-02-15T15:55:56.480Z,35.54
2023-02-15T15:58:25.130Z,35.16
2023-02-15T16:00:56.978Z,35.69
2023-02-15T16:03:25.977Z,36.04
2023-02-15T16:05:56.476Z,35.47
2023-02-15T16:08:37.702Z,35.39
2023-02-15T16:11:14.684Z,34.82
2023-02-15T16:13:42.814Z,34.53
2023-02-15T16:16:12.333Z,34.91
2023-02-15T16:18:43.582Z,35.04
2023-02-15T16:21:21.849Z,35.04
2023-02-15T16:24:04.522Z,34.73
2023-02-15T16:27:02.976Z,35.07
2023-02-15T16:29:32.356Z,35.31
2023-02-15T16:32:05.209Z,35.28
2023-02-15T16:34:33.671Z,34.75
2023-02-15T16:37:16.963Z,35.35
2023-02-15T16:39:44.984Z,35.90
2023-02-15T16:42:14.921Z,35.75
2023-02-15T16:44:41.953Z,35.17
2023-02-15T16:47:36.488Z,35.22
2023-02-15T16:50:05.485Z,36.65
2023-02-15T16:52:32.584Z,36.21
2023-02-15T16:55:01.836Z,35.67
2023-02-15T16:57:36.277Z,36.38
2023-02-15T17:00:07.038Z,38.15
2023-02-15T17:02:55.182Z,37.71
2023-02-15T17:05:22.800Z,37.56
2023-02-15T17:08:03.842Z,37.93
2023-02-15T17:10:37.298Z,37.96
2023-02-15T17:13:11.701Z,37.94
2023-02-15T17:15:43.330Z,38.62
2023-02-15T17:18:19.282Z,38.85
2023-02-15T17:20:47.859Z,40.73
2023-02-15T17:23:31.488Z,41.25
2023-02-15T17:25:59.619Z,40.14
2023-02-15T17:28:32.019Z,41.73
2023-02-15T17:30:59.537Z,43.87
2023-02-15T17:33:35.368Z,43.72
2023-02-15T17:36:11.226Z,45.56
2023-02-15T17:38:40.267Z,45.95
2023-02-15T17:41:06.967Z,44.00
2023-02-15T17:43:33.575Z,44.62
2023-02-15T17:46:00.286Z,44.51
2023-02-15T17:48:32.513Z,44.89
2023-02-15T17:51:02.552Z,45.58
2023-02-15T17:53:29.991Z,45.33
2023-02-15T17:55:56.528Z,45.23
2023-02-15T17:58:23.799Z,43.48
2023-02-15T18:01:13.372Z,44.60
2023-02-15T18:04:05.541Z,47.17
2023-02-15T18:06:51.203Z,48.06
2023-02-15T18:09:38.133Z,48.20
2023-02-15T18:12:20.020Z,48.08
2023-02-15T18:14:46.579Z,49.22
2023-02-15T18:17:14.899Z,48.94
2023-02-15T18:19:44.281Z,49.00
2023-02-15T18:22:19.357Z,48.66
2023-02-15T18:24:47.496Z,49.04
2023-02-15T18:27:15.584Z,49.18
2023-02-15T18:29:43.538Z,48.89
2023-02-15T18:32:34.676Z,48.86
2023-02-15T18:35:02.892Z,48.09
2023-02-15T18:37:33.123Z,47.47
2023-02-15T18:40:01.114Z,48.07
2023-02-15T18:42:31.504Z,50.33
2023-02-15T18:45:02.849Z,49.95
2023-02-15T18:47:29.588Z,49.57
2023-02-15T18:49:56.288Z,49.77
2023-02-15T18:52:27.346Z,49.94
2023-02-15T18:54:57.863Z,49.32
2023-02-15T18:57:24.493Z,50.01
2023-02-15T18:59:51.113Z,48.70
2023-02-15T19:02:19.702Z,49.83
2023-02-15T19:04:46.792Z,50.08
2023-02-15T19:07:24.560Z,50.15
2023-02-15T19:09:55.405Z,50.20
2023-02-15T19:12:22.271Z,49.63
2023-02-15T19:14:51.163Z,49.11
2023-02-15T19:17:20.239Z,49.13
2023-02-15T19:19:47.603Z,49.92
2023-02-15T19:22:24.922Z,49.63
2023-02-15T19:24:52.316Z,49.38
2023-02-15T19:27:37.930Z,50.46
2023-02-15T19:30:15.145Z,49.48
2023-02-15T19:32:41.812Z,49.44
2023-02-15T19:35:16.897Z,50.21
2023-02-15T19:37:46.841Z,49.85
2023-02-15T19:40:30.237Z,49.63
2023-02-15T19:42:57.231Z,49.13
2023-02-15T19:45:26.629Z,49.78
2023-02-15T19:47:55.104Z,50.24
2023-02-15T19:50:25.169Z,50.11
2023-02-15T19:52:52.379Z,50.56
2023-02-15T19:55:23.159Z,51.10
2023-02-15T19:57:52.110Z,51.47
2023-02-15T20:00:22.395Z,51.09
2023-02-15T20:02:49.374Z,50.57
2023-02-15T20:05:16.299Z,51.17
2023-02-15T20:07:48.959Z,52.00
2023-02-15T20:10:21.333Z,50.76
2023-02-15T20:12:48.321Z,50.82
2023-02-15T20:15:29.416Z,51.06
2023-02-15T20:17:57.350Z,51.33
2023-02-15T20:20:31.730Z,52.28
2023-02-15T20:22:58.405Z,51.85
2023-02-15T20:25:27.771Z,52.06
2023-02-15T20:27:54.577Z,51.92
2023-02-15T20:30:24.239Z,51.06
2023-02-15T20:32:50.894Z,51.05
2023-02-15T20:35:19.861Z,51.65
2023-02-15T20:38:00.316Z,50.80
2023-02-15T20:40:32.728Z,51.20
2023-02-15T20:42:59.654Z,52.57
2023-02-15T20:45:30.202Z,52.80
2023-02-15T20:47:58.353Z,51.39
2023-02-15T20:50:28.521Z,50.84
2023-02-15T20:52:57.132Z,50.93
2023-02-15T20:55:34.205Z,51.33
2023-02-15T20:58:00.831Z,52.00
2023-02-15T21:00:31.532Z,53.45
2023-02-15T21:03:00.467Z,53.55
2023-02-15T21:05:30.709Z,53.17
2023-02-15T21:07:57.402Z,54.20
2023-02-15T21:10:30.210Z,55.07
2023-02-15T21:12:59.256Z,56.77
2023-02-15T21:15:34.772Z,57.05
2023-02-15T21:18:07.585Z,58.14
2023-02-15T21:20:35.814Z,58.68
2023-02-15T21:23:04.828Z,58.61
2023-02-15T21:25:36.276Z,58.69
2023-02-15T21:28:09.639Z,58.24
2023-02-15T21:30:36.219Z,58.06
2023-02-15T21:33:02.812Z,58.44
2023-02-15T21:35:29.394Z,57.25
2023-02-15T21:37:56.439Z,57.24
2023-02-15T21:40:29.249Z,57.22
2023-02-15T21:43:15.282Z,56.96
2023-02-15T21:46:00.780Z,56.13
2023-02-15T21:48:27.776Z,57.59
2023-02-15T21:51:13.375Z,58.08
2023-02-15T21:53:43.098Z,58.00
2023-02-15T21:56:15.535Z,57.27
2023-02-15T21:58:42.417Z,57.62
2023-02-15T22:01:28.401Z,57.99
2023-02-15T22:03:58.016Z,58.06
2023-02-15T22:06:25.433Z,58.62
2023-02-15T22:08:51.994Z,58.13
2023-02-15T22:11:22.009Z,58.08
2023-02-15T22:13:50.340Z,57.70
2023-02-15T22:16:21.861Z,57.87
2023-02-15T22:18:48.684Z,57.25
2023-02-15T22:21:18.136Z,57.49
2023-02-15T22:23:44.696Z,57.10
2023-02-15T22:26:18.341Z,57.05
2023-02-15T22:28:44.888Z,55.65
2023-02-15T22:31:14.287Z,55.02
2023-02-15T22:33:41.097Z,54.62
2023-02-15T22:36:22.852Z,53.68
2023-02-15T22:38:49.328Z,53.34
2023-02-15T22:41:16.968Z,55.60
2023-02-15T22:43:45.200Z,56.61
2023-02-15T22:46:17.792Z,55.16
2023-02-15T22:48:47.560Z,54.64
2023-02-15T22:51:20.239Z,54.64
2023-02-15T22:53:49.530Z,53.75
2023-02-15T22:56:19.869Z,54.80
2023-02-15T22:58:49.473Z,54.97
2023-02-15T23:01:26.243Z,53.85
2023-02-15T23:03:52.862Z,53.80
2023-02-15T23:06:19.427Z,53.97
2023-02-15T23:08:46.101Z,54.63
2023-02-15T23:11:12.816Z,54.45
2023-02-15T23:13:39.425Z,54.09
2023-02-15T23:16:07.793Z,54.25
2023-02-15T23:18:37.833Z,54.49
2023-02-15T23:21:21.615Z,54.82
2023-02-15T23:23:51.152Z,54.97
2023-02-15T23:26:35.804Z,54.87
2023-02-15T23:29:03.778Z,55.17
2023-02-15T23:31:33.089Z,54.25
2023-02-15T23:34:01.503Z,54.73
2023-02-15T23:36:27.979Z,54.90
2023-02-15T23:38:56.986Z,54.78
2023-02-15T23:41:28.340Z,56.51
2023-02-15T23:44:01.140Z,57.88
2023-02-15T23:46:40.668Z,57.46
2023-02-15T23:49:17.264Z,58.71
2023-02-15T23:51:52.810Z,59.48
2023-02-15T23:54:21.975Z,59.08
2023-02-15T23:56:53.077Z,58.23
2023-02-15T23:59:28.440Z,58.55
